sensor_id;sensor_type;location;lat;lon;timestamp;pressure;altitude;pressure_sealevel;temperature;humidity
64821;BME280;51256;55.654;37.264;2022-10-17T00:01:35;100321.63;;;5.47;61.98
64821;BME280;51256;55.654;37.264;2022-10-17T00:04:00;100315.44;;;5.48;62.31
64821;BME280;51256;55.654;37.264;2022-10-17T00:06:26;100318.94;;;5.48;62.19
64821;BME280;51256;55.654;37.264;2022-10-17T00:08:51;100315.34;;;5.49;62.39
64821;BME280;51256;55.654;37.264;2022-10-17T00:11:19;100310.84;;;5.51;62.14
64821;BME280;51256;55.654;37.264;2022-10-17T00:13:47;100311.75;;;5.50;62.15
64821;BME280;51256;55.654;37.264;2022-10-17T00:16:14;100302.00;;;5.52;62.23
64821;BME280;51256;55.654;37.264;2022-10-17T00:18:40;100294.19;;;5.51;62.30
64821;BME280;51256;55.654;37.264;2022-10-17T00:21:14;100287.78;;;5.55;62.43
64821;BME280;51256;55.654;37.264;2022-10-17T00:23:39;100286.09;;;5.54;62.22
64821;BME280;51256;55.654;37.264;2022-10-17T00:26:05;100273.97;;;5.51;62.00
64821;BME280;51256;55.654;37.264;2022-10-17T00:28:31;100282.16;;;5.61;62.70
64821;BME280;51256;55.654;37.264;2022-10-17T00:30:57;100282.16;;;5.61;62.01
64821;BME280;51256;55.654;37.264;2022-10-17T00:33:24;100282.16;;;5.61;62.16
64821;BME280;51256;55.654;37.264;2022-10-17T00:35:49;100277.06;;;5.58;62.36
64821;BME280;51256;55.654;37.264;2022-10-17T00:38:15;100272.81;;;5.56;62.01
64821;BME280;51256;55.654;37.264;2022-10-17T00:40:40;100272.94;;;5.54;62.21
64821;BME280;51256;55.654;37.264;2022-10-17T00:43:15;100273.03;;;5.52;62.28
64821;BME280;51256;55.654;37.264;2022-10-17T00:45:41;100262.94;;;5.45;62.41
64821;BME280;51256;55.654;37.264;2022-10-17T00:48:08;100263.03;;;5.43;62.71
64821;BME280;51256;55.654;37.264;2022-10-17T00:50:35;100261.25;;;5.44;62.66
64821;BME280;51256;55.654;37.264;2022-10-17T00:53:03;100260.47;;;5.42;62.74
64821;BME280;51256;55.654;37.264;2022-10-17T00:55:33;100246.94;;;5.33;63.07
64821;BME280;51256;55.654;37.264;2022-10-17T00:58:01;100248.53;;;5.36;63.03
64821;BME280;51256;55.654;37.264;2022-10-17T01:00:28;100250.41;;;5.34;62.88
64821;BME280;51256;55.654;37.264;2022-10-17T01:02:54;100241.84;;;5.30;63.42
64821;BME280;51256;55.654;37.264;2022-10-17T01:05:20;100236.69;;;5.29;62.86
64821;BME280;51256;55.654;37.264;2022-10-17T01:07:46;100237.59;;;5.28;63.36
64821;BME280;51256;55.654;37.264;2022-10-17T01:10:13;100227.19;;;5.26;63.15
64821;BME280;51256;55.654;37.264;2022-10-17T01:15:29;100230.75;;;5.25;63.51
64821;BME280;51256;55.654;37.264;2022-10-17T01:18:28;100221.81;;;5.28;63.34
64821;BME280;51256;55.654;37.264;2022-10-17T01:26:20;100207.25;;;5.22;63.06
64821;BME280;51256;55.654;37.264;2022-10-17T01:29:10;100208.09;;;5.23;63.35
64821;BME280;51256;55.654;37.264;2022-10-17T01:31:46;100199.34;;;5.22;63.19
64821;BME280;51256;55.654;37.264;2022-10-17T01:34:33;100197.34;;;5.26;63.47
64821;BME280;51256;55.654;37.264;2022-10-17T01:42:25;100186.25;;;5.20;63.25
64821;BME280;51256;55.654;37.264;2022-10-17T01:45:02;100179.13;;;5.23;63.23
64821;BME280;51256;55.654;37.264;2022-10-17T01:47:32;100184.50;;;5.21;63.27
64821;BME280;51256;55.654;37.264;2022-10-17T01:50:11;100170.56;;;5.19;63.48
64821;BME280;51256;55.654;37.264;2022-10-17T01:52:47;100154.47;;;5.09;63.27
64821;BME280;51256;55.654;37.264;2022-10-17T01:55:21;100171.97;;;5.10;63.47
64821;BME280;51256;55.654;37.264;2022-10-17T01:57:53;100171.19;;;5.08;63.37
64821;BME280;51256;55.654;37.264;2022-10-17T02:00:23;100176.44;;;5.08;63.43
64821;BME280;51256;55.654;37.264;2022-10-17T02:03:12;100169.59;;;5.06;64.15
64821;BME280;51256;55.654;37.264;2022-10-17T02:05:40;100169.13;;;4.99;64.04
64821;BME280;51256;55.654;37.264;2022-10-17T02:08:07;100175.97;;;5.01;63.85
64821;BME280;51256;55.654;37.264;2022-10-17T02:24:48;100171.97;;;5.10;64.36
64821;BME280;51256;55.654;37.264;2022-10-17T02:30:14;100173.66;;;5.11;64.27
64821;BME280;51256;55.654;37.264;2022-10-17T02:32:51;100157.97;;;5.10;64.06
64821;BME280;51256;55.654;37.264;2022-10-17T02:35:20;100157.97;;;5.10;64.01
64821;BME280;51256;55.654;37.264;2022-10-17T02:37:47;100155.91;;;5.15;64.15
64821;BME280;51256;55.654;37.264;2022-10-17T02:40:16;100152.22;;;5.17;64.09
64821;BME280;51256;55.654;37.264;2022-10-17T02:42:43;100152.13;;;5.19;64.04
64821;BME280;51256;55.654;37.264;2022-10-17T02:45:11;100149.50;;;5.19;63.61
64821;BME280;51256;55.654;37.264;2022-10-17T02:47:47;100145.25;;;5.16;63.49
64821;BME280;51256;55.654;37.264;2022-10-17T02:50:14;100142.53;;;5.18;64.14
64821;BME280;51256;55.654;37.264;2022-10-17T02:52:54;100143.56;;;5.15;64.24
64821;BME280;51256;55.654;37.264;2022-10-17T02:55:29;100138.88;;;5.06;64.22
64821;BME280;51256;55.654;37.264;2022-10-17T02:57:59;100138.22;;;5.02;64.19
64821;BME280;51256;55.654;37.264;2022-10-17T03:00:27;100136.59;;;5.00;64.53
64821;BME280;51256;55.654;37.264;2022-10-17T03:02:53;100138.22;;;5.02;64.63
64821;BME280;51256;55.654;37.264;2022-10-17T03:05:20;100139.13;;;5.01;64.51
64821;BME280;51256;55.654;37.264;2022-10-17T03:07:46;100121.66;;;5.00;64.59
64821;BME280;51256;55.654;37.264;2022-10-17T03:10:12;100125.72;;;5.06;64.53
64821;BME280;51256;55.654;37.264;2022-10-17T03:12:37;100113.84;;;4.99;64.18
64821;BME280;51256;55.654;37.264;2022-10-17T03:15:03;100107.56;;;5.01;64.43
64821;BME280;51256;55.654;37.264;2022-10-17T03:17:29;100103.13;;;5.02;64.61
64821;BME280;51256;55.654;37.264;2022-10-17T03:19:54;100102.50;;;4.98;64.26
64821;BME280;51256;55.654;37.264;2022-10-17T03:22:20;100111.31;;;4.97;64.62
64821;BME280;51256;55.654;37.264;2022-10-17T03:24:45;100108.38;;;5.02;64.67
64821;BME280;51256;55.654;37.264;2022-10-17T03:27:11;100100.50;;;5.02;64.80
64821;BME280;51256;55.654;37.264;2022-10-17T03:29:36;100093.84;;;4.96;64.96
64821;BME280;51256;55.654;37.264;2022-10-17T03:32:01;100089.25;;;5.00;64.82
64821;BME280;51256;55.654;37.264;2022-10-17T03:34:27;100090.28;;;4.97;64.36
64821;BME280;51256;55.654;37.264;2022-10-17T03:36:52;100080.84;;;4.93;64.42
64821;BME280;51256;55.654;37.264;2022-10-17T03:39:18;100092.69;;;5.00;64.46
64821;BME280;51256;55.654;37.264;2022-10-17T03:41:43;100091.59;;;5.05;64.32
64821;BME280;51256;55.654;37.264;2022-10-17T03:44:09;100083.97;;;5.00;64.89
64821;BME280;51256;55.654;37.264;2022-10-17T03:46:34;100076.81;;;5.02;64.38
64821;BME280;51256;55.654;37.264;2022-10-17T03:49:00;100069.78;;;5.02;64.67
64821;BME280;51256;55.654;37.264;2022-10-17T03:51:25;100066.88;;;5.07;64.64
64821;BME280;51256;55.654;37.264;2022-10-17T03:53:51;100065.84;;;5.10;64.60
64821;BME280;51256;55.654;37.264;2022-10-17T03:56:19;100057.84;;;5.11;64.42
64821;BME280;51256;55.654;37.264;2022-10-17T03:58:45;100048.91;;;5.14;64.33
64821;BME280;51256;55.654;37.264;2022-10-17T04:01:13;100052.00;;;5.20;64.53
64821;BME280;51256;55.654;37.264;2022-10-17T04:03:40;100044.19;;;5.19;64.67
64821;BME280;51256;55.654;37.264;2022-10-17T04:06:06;100046.56;;;5.24;64.57
64821;BME280;51256;55.654;37.264;2022-10-17T04:08:33;100058.84;;;5.23;64.60
64821;BME280;51256;55.654;37.264;2022-10-17T04:11:04;100060.56;;;5.24;64.30
64821;BME280;51256;55.654;37.264;2022-10-17T04:13:31;100057.63;;;5.14;64.08
64821;BME280;51256;55.654;37.264;2022-10-17T04:15:59;100064.44;;;5.18;64.61
64821;BME280;51256;55.654;37.264;2022-10-17T04:18:25;100044.47;;;5.14;64.21
64821;BME280;51256;55.654;37.264;2022-10-17T04:20:51;100034.59;;;5.18;64.79
64821;BME280;51256;55.654;37.264;2022-10-17T04:23:16;100042.03;;;5.26;64.19
64821;BME280;51256;55.654;37.264;2022-10-17T04:25:42;100038.38;;;5.28;64.09
64821;BME280;51256;55.654;37.264;2022-10-17T04:28:07;100024.91;;;5.33;64.13
64821;BME280;51256;55.654;37.264;2022-10-17T04:30:33;100030.81;;;5.36;63.77
64821;BME280;51256;55.654;37.264;2022-10-17T04:32:58;100022.09;;;5.36;64.45
64821;BME280;51256;55.654;37.264;2022-10-17T04:35:24;100043.31;;;5.47;64.01
64821;BME280;51256;55.654;37.264;2022-10-17T04:37:49;100026.38;;;5.51;63.87
64821;BME280;51256;55.654;37.264;2022-10-17T04:40:15;100012.06;;;5.56;64.21
64821;BME280;51256;55.654;37.264;2022-10-17T04:42:40;100011.00;;;5.58;64.14
64821;BME280;51256;55.654;37.264;2022-10-17T04:45:06;100012.41;;;5.64;63.70
64821;BME280;51256;55.654;37.264;2022-10-17T04:47:32;100009.50;;;5.68;63.86
64821;BME280;51256;55.654;37.264;2022-10-17T04:49:57;100014.44;;;5.73;63.93
64821;BME280;51256;55.654;37.264;2022-10-17T04:52:23;100016.16;;;5.74;63.46
64821;BME280;51256;55.654;37.264;2022-10-17T04:54:50;100012.78;;;5.72;62.97
64821;BME280;51256;55.654;37.264;2022-10-17T04:57:15;100021.13;;;5.79;63.33
64821;BME280;51256;55.654;37.264;2022-10-17T04:59:41;100009.09;;;5.75;63.77
64821;BME280;51256;55.654;37.264;2022-10-17T05:02:07;100018.78;;;5.74;63.23
64821;BME280;51256;55.654;37.264;2022-10-17T05:04:32;100006.75;;;5.70;63.32
64821;BME280;51256;55.654;37.264;2022-10-17T05:06:58;100015.22;;;5.75;63.25
64821;BME280;51256;55.654;37.264;2022-10-17T05:09:23;100006.91;;;5.81;63.61
64821;BME280;51256;55.654;37.264;2022-10-17T05:11:52;99996.25;;;5.83;63.04
64821;BME280;51256;55.654;37.264;2022-10-17T05:14:17;99994.38;;;5.85;63.29
64821;BME280;51256;55.654;37.264;2022-10-17T05:16:43;100001.88;;;5.91;62.68
64821;BME280;51256;55.654;37.264;2022-10-17T05:19:10;99998.66;;;6.00;63.19
64821;BME280;51256;55.654;37.264;2022-10-17T05:21:35;100008.91;;;6.05;62.54
64821;BME280;51256;55.654;37.264;2022-10-17T05:24:05;100006.69;;;6.12;62.73
64821;BME280;51256;55.654;37.264;2022-10-17T05:26:31;99994.03;;;6.17;63.02
64821;BME280;51256;55.654;37.264;2022-10-17T05:28:58;99995.31;;;6.24;62.17
64821;BME280;51256;55.654;37.264;2022-10-17T05:31:24;99983.13;;;6.36;62.30
64821;BME280;51256;55.654;37.264;2022-10-17T05:33:50;99960.75;;;6.42;62.41
64821;BME280;51256;55.654;37.264;2022-10-17T05:36:15;99968.34;;;6.46;62.03
64821;BME280;51256;55.654;37.264;2022-10-17T05:38:40;99964.66;;;6.49;61.94
64821;BME280;51256;55.654;37.264;2022-10-17T05:41:06;99963.28;;;6.56;61.59
64821;BME280;51256;55.654;37.264;2022-10-17T05:43:32;99964.88;;;6.59;61.53
64821;BME280;51256;55.654;37.264;2022-10-17T05:46:02;99964.00;;;6.58;61.72
64821;BME280;51256;55.654;37.264;2022-10-17T05:48:27;99956.84;;;6.60;61.80
64821;BME280;51256;55.654;37.264;2022-10-17T05:51:00;99960.88;;;6.66;61.35
64821;BME280;51256;55.654;37.264;2022-10-17T05:53:29;99970.34;;;6.69;61.33
64821;BME280;51256;55.654;37.264;2022-10-17T05:55:56;99956.41;;;6.67;61.16
64821;BME280;51256;55.654;37.264;2022-10-17T05:58:22;99960.75;;;6.68;61.59
64821;BME280;51256;55.654;37.264;2022-10-17T06:00:47;99959.06;;;6.67;61.59
64821;BME280;51256;55.654;37.264;2022-10-17T06:03:13;99962.75;;;6.64;61.49
64821;BME280;51256;55.654;37.264;2022-10-17T06:05:38;99950.81;;;6.58;61.41
64821;BME280;51256;55.654;37.264;2022-10-17T06:08:04;99956.53;;;6.65;61.51
64821;BME280;51256;55.654;37.264;2022-10-17T06:10:29;99953.16;;;6.63;61.82
64821;BME280;51256;55.654;37.264;2022-10-17T06:12:55;99939.13;;;6.62;61.60
64821;BME280;51256;55.654;37.264;2022-10-17T06:15:21;99959.16;;;6.78;60.94
64821;BME280;51256;55.654;37.264;2022-10-17T06:17:47;99965.06;;;6.81;61.34
64821;BME280;51256;55.654;37.264;2022-10-17T06:20:12;99960.53;;;6.84;61.18
64821;BME280;51256;55.654;37.264;2022-10-17T06:22:38;99961.88;;;6.89;60.81
64821;BME280;51256;55.654;37.264;2022-10-17T06:25:03;99968.84;;;6.90;61.41
64821;BME280;51256;55.654;37.264;2022-10-17T06:27:29;99970.41;;;6.93;61.04
64821;BME280;51256;55.654;37.264;2022-10-17T06:29:54;99972.00;;;6.95;61.30
64821;BME280;51256;55.654;37.264;2022-10-17T06:32:20;99962.59;;;7.04;60.72
64821;BME280;51256;55.654;37.264;2022-10-17T06:34:45;99938.63;;;7.07;60.58
64821;BME280;51256;55.654;37.264;2022-10-17T06:37:11;99946.63;;;7.19;60.04
64821;BME280;51256;55.654;37.264;2022-10-17T06:39:36;99924.41;;;7.21;60.21
64821;BME280;51256;55.654;37.264;2022-10-17T06:42:03;99923.44;;;7.22;60.38
64821;BME280;51256;55.654;37.264;2022-10-17T06:44:28;99936.16;;;7.41;60.25
64821;BME280;51256;55.654;37.264;2022-10-17T06:46:59;99940.88;;;7.49;59.76
64821;BME280;51256;55.654;37.264;2022-10-17T06:49:26;99929.75;;;7.57;59.69
64821;BME280;51256;55.654;37.264;2022-10-17T06:51:51;99929.59;;;7.71;59.75
64821;BME280;51256;55.654;37.264;2022-10-17T06:54:17;99933.84;;;7.85;59.48
64821;BME280;51256;55.654;37.264;2022-10-17T06:56:42;99930.97;;;8.00;59.43
64821;BME280;51256;55.654;37.264;2022-10-17T06:59:09;99919.78;;;7.96;59.22
64821;BME280;51256;55.654;37.264;2022-10-17T07:01:34;99920.03;;;7.93;59.17
64821;BME280;51256;55.654;37.264;2022-10-17T07:04:00;99928.69;;;7.95;59.19
64821;BME280;51256;55.654;37.264;2022-10-17T07:06:26;99925.06;;;7.96;59.31
64821;BME280;51256;55.654;37.264;2022-10-17T07:08:51;99913.78;;;7.94;59.09
64821;BME280;51256;55.654;37.264;2022-10-17T07:11:19;99928.31;;;7.88;59.09
64821;BME280;51256;55.654;37.264;2022-10-17T07:13:46;99913.75;;;7.83;59.40
64821;BME280;51256;55.654;37.264;2022-10-17T07:16:12;99910.03;;;7.85;59.44
64821;BME280;51256;55.654;37.264;2022-10-17T07:18:38;99894.66;;;7.79;59.43
64821;BME280;51256;55.654;37.264;2022-10-17T07:21:05;99909.63;;;7.78;59.53
64821;BME280;51256;55.654;37.264;2022-10-17T07:23:30;99907.13;;;7.77;59.37
64821;BME280;51256;55.654;37.264;2022-10-17T07:26:01;99902.91;;;7.74;59.70
64821;BME280;51256;55.654;37.264;2022-10-17T07:28:27;99891.03;;;7.80;59.50
64821;BME280;51256;55.654;37.264;2022-10-17T07:30:53;99891.16;;;7.90;59.26
64821;BME280;51256;55.654;37.264;2022-10-17T07:33:18;99898.72;;;7.83;59.00
64821;BME280;51256;55.654;37.264;2022-10-17T07:35:44;99904.59;;;7.75;59.49
64821;BME280;51256;55.654;37.264;2022-10-17T07:38:09;99908.31;;;7.73;59.46
64821;BME280;51256;55.654;37.264;2022-10-17T07:40:35;99922.72;;;7.69;59.87
64821;BME280;51256;55.654;37.264;2022-10-17T07:43:00;99908.50;;;7.58;60.01
64821;BME280;51256;55.654;37.264;2022-10-17T07:45:26;99902.25;;;7.59;60.12
64821;BME280;51256;55.654;37.264;2022-10-17T07:47:56;99912.31;;;7.54;60.17
64821;BME280;51256;55.654;37.264;2022-10-17T07:50:21;99899.69;;;7.46;60.20
64821;BME280;51256;55.654;37.264;2022-10-17T07:52:47;99915.66;;;7.45;60.59
64821;BME280;51256;55.654;37.264;2022-10-17T07:55:12;99899.28;;;7.40;60.77
64821;BME280;51256;55.654;37.264;2022-10-17T07:57:38;99900.47;;;7.36;60.98
64821;BME280;51256;55.654;37.264;2022-10-17T08:00:06;99895.31;;;7.34;61.56
64821;BME280;51256;55.654;37.264;2022-10-17T08:02:31;99876.69;;;7.36;61.53
64821;BME280;51256;55.654;37.264;2022-10-17T08:04:57;99861.47;;;7.39;61.59
64821;BME280;51256;55.654;37.264;2022-10-17T08:07:22;99871.25;;;7.50;61.56
64821;BME280;51256;55.654;37.264;2022-10-17T08:09:48;99875.63;;;7.62;61.53
64821;BME280;51256;55.654;37.264;2022-10-17T08:12:14;99875.88;;;7.71;60.89
64821;BME280;51256;55.654;37.264;2022-10-17T08:14:40;99880.06;;;7.73;60.96
64821;BME280;51256;55.654;37.264;2022-10-17T08:17:06;99870.56;;;7.71;60.89
64821;BME280;51256;55.654;37.264;2022-10-17T08:19:31;99872.28;;;7.72;61.04
64821;BME280;51256;55.654;37.264;2022-10-17T08:21:57;99869.63;;;7.72;60.88
64821;BME280;51256;55.654;37.264;2022-10-17T08:24:24;99877.44;;;7.73;61.01
64821;BME280;51256;55.654;37.264;2022-10-17T08:26:50;99880.31;;;7.70;61.01
64821;BME280;51256;55.654;37.264;2022-10-17T08:29:17;99898.69;;;7.72;60.99
64821;BME280;51256;55.654;37.264;2022-10-17T08:31:43;99888.38;;;7.69;61.28
64821;BME280;51256;55.654;37.264;2022-10-17T08:34:09;99864.06;;;7.63;61.82
64821;BME280;51256;55.654;37.264;2022-10-17T08:36:35;99871.16;;;7.63;61.85
64821;BME280;51256;55.654;37.264;2022-10-17T08:39:00;99877.41;;;7.62;61.91
64821;BME280;51256;55.654;37.264;2022-10-17T08:46:43;99897.66;;;7.50;63.09
64821;BME280;51256;55.654;37.264;2022-10-17T08:49:31;99904.97;;;7.46;63.59
64821;BME280;51256;55.654;37.264;2022-10-17T08:52:05;99909.84;;;7.40;63.88
64821;BME280;51256;55.654;37.264;2022-10-17T08:54:41;99898.91;;;7.33;65.02
64821;BME280;51256;55.654;37.264;2022-10-17T08:57:14;99906.38;;;7.15;65.96
64821;BME280;51256;55.654;37.264;2022-10-17T08:59:40;99888.28;;;6.97;66.34
64821;BME280;51256;55.654;37.264;2022-10-17T09:05:08;99895.53;;;6.57;69.22
64821;BME280;51256;55.654;37.264;2022-10-17T09:07:55;99881.44;;;6.45;69.89
64821;BME280;51256;55.654;37.264;2022-10-17T09:19:22;99892.81;;;6.32;74.05
64821;BME280;51256;55.654;37.264;2022-10-17T09:21:59;99899.03;;;6.31;74.69
64821;BME280;51256;55.654;37.264;2022-10-17T09:24:45;99901.44;;;6.35;75.57
64821;BME280;51256;55.654;37.264;2022-10-17T09:27:26;99893.13;;;6.28;75.83
64821;BME280;51256;55.654;37.264;2022-10-17T09:35:37;99866.66;;;6.29;77.71
64821;BME280;51256;55.654;37.264;2022-10-17T09:38:04;99858.66;;;6.31;77.36
64821;BME280;51256;55.654;37.264;2022-10-17T09:40:32;99857.78;;;6.43;78.03
64821;BME280;51256;55.654;37.264;2022-10-17T09:43:00;99854.06;;;6.59;77.69
64821;BME280;51256;55.654;37.264;2022-10-17T09:45:27;99855.09;;;6.69;77.95
64821;BME280;51256;55.654;37.264;2022-10-17T09:48:13;99857.69;;;6.82;77.62
64821;BME280;51256;55.654;37.264;2022-10-17T09:50:44;99843.94;;;6.90;78.15
64821;BME280;51256;55.654;37.264;2022-10-17T09:53:13;99861.69;;;6.88;77.84
64821;BME280;51256;55.654;37.264;2022-10-17T09:55:46;99854.09;;;6.83;78.10
64821;BME280;51256;55.654;37.264;2022-10-17T09:58:15;99839.50;;;6.90;78.39
64821;BME280;51256;55.654;37.264;2022-10-17T10:00:43;99826.94;;;6.94;78.14
64821;BME280;51256;55.654;37.264;2022-10-17T10:05:37;99829.81;;;7.15;78.23
64821;BME280;51256;55.654;37.264;2022-10-17T10:08:10;99826.66;;;7.10;78.00
64821;BME280;51256;55.654;37.264;2022-10-17T10:10:37;99826.88;;;7.07;78.07
64821;BME280;51256;55.654;37.264;2022-10-17T10:15:40;99817.94;;;6.96;78.93
64821;BME280;51256;55.654;37.264;2022-10-17T10:18:27;99818.13;;;7.06;78.53
64821;BME280;51256;55.654;37.264;2022-10-17T10:23:32;99803.97;;;7.07;79.22
64821;BME280;51256;55.654;37.264;2022-10-17T10:26:01;99813.22;;;7.13;79.14
64821;BME280;51256;55.654;37.264;2022-10-17T10:28:30;99811.94;;;7.19;79.89
64821;BME280;51256;55.654;37.264;2022-10-17T10:31:00;99800.50;;;7.18;79.85
64821;BME280;51256;55.654;37.264;2022-10-17T10:33:28;99810.63;;;7.24;79.89
64821;BME280;51256;55.654;37.264;2022-10-17T10:36:00;99805.66;;;7.20;79.33
64821;BME280;51256;55.654;37.264;2022-10-17T10:38:26;99809.19;;;7.20;79.97
64821;BME280;51256;55.654;37.264;2022-10-17T10:41:01;99812.03;;;7.17;79.78
64821;BME280;51256;55.654;37.264;2022-10-17T10:43:47;99813.50;;;7.21;80.08
64821;BME280;51256;55.654;37.264;2022-10-17T10:46:22;99814.66;;;7.17;80.31
64821;BME280;51256;55.654;37.264;2022-10-17T10:51:22;99799.44;;;7.21;79.83
64821;BME280;51256;55.654;37.264;2022-10-17T10:56:37;99779.56;;;7.28;80.12
64821;BME280;51256;55.654;37.264;2022-10-17T11:04:46;99779.84;;;7.47;80.31
64821;BME280;51256;55.654;37.264;2022-10-17T11:07:37;99769.63;;;7.43;80.37
64821;BME280;51256;55.654;37.264;2022-10-17T11:10:45;99761.81;;;7.41;79.94
64821;BME280;51256;55.654;37.264;2022-10-17T11:13:26;99767.19;;;7.40;80.62
64821;BME280;51256;55.654;37.264;2022-10-17T11:18:49;99748.97;;;7.48;80.95
64821;BME280;51256;55.654;37.264;2022-10-17T11:26:26;99736.59;;;7.49;80.27
64821;BME280;51256;55.654;37.264;2022-10-17T11:28:53;99741.88;;;7.49;80.98
64821;BME280;51256;55.654;37.264;2022-10-17T11:31:20;99748.63;;;7.41;81.06
64821;BME280;51256;55.654;37.264;2022-10-17T11:33:57;99742.97;;;7.46;80.79
64821;BME280;51256;55.654;37.264;2022-10-17T11:36:30;99764.84;;;7.48;81.50
64821;BME280;51256;55.654;37.264;2022-10-17T11:39:49;99756.56;;;7.53;81.31
64821;BME280;51256;55.654;37.264;2022-10-17T11:42:02;99743.56;;;7.50;81.15
64821;BME280;51256;55.654;37.264;2022-10-17T11:44:35;99731.84;;;7.54;81.41
64821;BME280;51256;55.654;37.264;2022-10-17T11:47:06;99747.69;;;7.54;81.75
64821;BME280;51256;55.654;37.264;2022-10-17T11:49:39;99727.13;;;7.57;81.81
64821;BME280;51256;55.654;37.264;2022-10-17T11:52:27;99733.28;;;7.58;81.69
64821;BME280;51256;55.654;37.264;2022-10-17T11:54:58;99735.56;;;7.51;81.42
64821;BME280;51256;55.654;37.264;2022-10-17T11:57:43;99720.66;;;7.50;81.69
64821;BME280;51256;55.654;37.264;2022-10-17T12:03:35;99714.03;;;7.56;82.14
64821;BME280;51256;55.654;37.264;2022-10-17T12:11:49;99702.16;;;7.61;82.60
64821;BME280;51256;55.654;37.264;2022-10-17T12:17:31;99688.00;;;7.62;82.35
64821;BME280;51256;55.654;37.264;2022-10-17T12:26:01;99687.00;;;7.63;82.59
64821;BME280;51256;55.654;37.264;2022-10-17T12:33:55;99689.09;;;7.60;82.63
64821;BME280;51256;55.654;37.264;2022-10-17T12:39:40;99695.44;;;7.69;83.23
64821;BME280;51256;55.654;37.264;2022-10-17T13:03:42;99727.13;;;7.57;83.19
64821;BME280;51256;55.654;37.264;2022-10-17T13:06:04;99731.72;;;7.55;82.98
64821;BME280;51256;55.654;37.264;2022-10-17T13:08:39;99757.19;;;7.56;83.05
64821;BME280;51256;55.654;37.264;2022-10-17T13:11:07;99752.56;;;7.47;83.43
64821;BME280;51256;55.654;37.264;2022-10-17T13:13:43;99745.25;;;7.51;82.75
64821;BME280;51256;55.654;37.264;2022-10-17T13:18:52;99770.69;;;7.40;82.93
64821;BME280;51256;55.654;37.264;2022-10-17T13:21:17;99786.31;;;7.43;83.11
64821;BME280;51256;55.654;37.264;2022-10-17T13:23:43;99809.25;;;7.43;83.14
64821;BME280;51256;55.654;37.264;2022-10-17T13:26:14;99813.59;;;7.44;83.31
64821;BME280;51256;55.654;37.264;2022-10-17T13:28:41;99794.69;;;7.37;83.21
64821;BME280;51256;55.654;37.264;2022-10-17T13:31:26;99806.38;;;7.46;83.35
64821;BME280;51256;55.654;37.264;2022-10-17T13:33:55;99783.28;;;7.37;83.42
64821;BME280;51256;55.654;37.264;2022-10-17T13:36:22;99774.78;;;7.44;83.47
64821;BME280;51256;55.654;37.264;2022-10-17T13:38:48;99800.50;;;7.42;83.27
64821;BME280;51256;55.654;37.264;2022-10-17T13:41:15;99793.06;;;7.47;83.80
64821;BME280;51256;55.654;37.264;2022-10-17T13:43:42;99784.28;;;7.47;83.45
64821;BME280;51256;55.654;37.264;2022-10-17T13:46:22;99785.63;;;7.53;83.51
64821;BME280;51256;55.654;37.264;2022-10-17T13:48:49;99775.75;;;7.55;83.79
64821;BME280;51256;55.654;37.264;2022-10-17T13:51:15;99778.41;;;7.55;83.72
64821;BME280;51256;55.654;37.264;2022-10-17T13:53:40;99775.19;;;7.62;83.65
64821;BME280;51256;55.654;37.264;2022-10-17T13:58:42;99768.47;;;7.70;83.72
64821;BME280;51256;55.654;37.264;2022-10-17T14:01:08;99763.09;;;7.71;83.90
64821;BME280;51256;55.654;37.264;2022-10-17T14:03:36;99765.72;;;7.71;84.17
64821;BME280;51256;55.654;37.264;2022-10-17T14:06:23;99742.41;;;7.76;84.08
64821;BME280;51256;55.654;37.264;2022-10-17T14:09:03;99734.56;;;7.63;84.44
64821;BME280;51256;55.654;37.264;2022-10-17T14:11:40;99753.53;;;7.57;84.46
64821;BME280;51256;55.654;37.264;2022-10-17T14:14:18;99743.22;;;7.54;85.17
64821;BME280;51256;55.654;37.264;2022-10-17T14:16:45;99759.09;;;7.54;84.92
64821;BME280;51256;55.654;37.264;2022-10-17T14:19:34;99737.22;;;7.52;84.92
64821;BME280;51256;55.654;37.264;2022-10-17T14:24:48;99741.78;;;7.50;85.36
64821;BME280;51256;55.654;37.264;2022-10-17T14:30:33;99729.53;;;7.49;84.95
64821;BME280;51256;55.654;37.264;2022-10-17T14:32:54;99728.19;;;7.55;85.49
64821;BME280;51256;55.654;37.264;2022-10-17T14:35:21;99736.88;;;7.57;84.68
64821;BME280;51256;55.654;37.264;2022-10-17T14:37:48;99741.53;;;7.53;84.97
64821;BME280;51256;55.654;37.264;2022-10-17T14:40:20;99738.28;;;7.50;85.31
64821;BME280;51256;55.654;37.264;2022-10-17T14:42:47;99747.78;;;7.52;85.33
64821;BME280;51256;55.654;37.264;2022-10-17T14:45:20;99753.53;;;7.57;85.27
64821;BME280;51256;55.654;37.264;2022-10-17T14:47:50;99742.97;;;7.57;84.98
64821;BME280;51256;55.654;37.264;2022-10-17T14:50:25;99741.41;;;7.55;84.68
64821;BME280;51256;55.654;37.264;2022-10-17T14:55:36;99755.03;;;7.61;84.57
64821;BME280;51256;55.654;37.264;2022-10-17T14:58:23;99752.25;;;7.63;84.72
64821;BME280;51256;55.654;37.264;2022-10-17T15:00:49;99746.34;;;7.59;84.76
64821;BME280;51256;55.654;37.264;2022-10-17T15:03:14;99738.44;;;7.59;85.07
64821;BME280;51256;55.654;37.264;2022-10-17T15:05:40;99744.56;;;7.60;85.08
64821;BME280;51256;55.654;37.264;2022-10-17T15:08:13;99745.88;;;7.54;84.80
64821;BME280;51256;55.654;37.264;2022-10-17T15:10:38;99736.38;;;7.52;84.93
64821;BME280;51256;55.654;37.264;2022-10-17T15:13:08;99760.78;;;7.55;85.19
64821;BME280;51256;55.654;37.264;2022-10-17T15:15:35;99761.97;;;7.51;85.15
64821;BME280;51256;55.654;37.264;2022-10-17T15:18:01;99745.84;;;7.43;85.42
64821;BME280;51256;55.654;37.264;2022-10-17T15:20:27;99748.63;;;7.41;85.06
64821;BME280;51256;55.654;37.264;2022-10-17T15:22:55;99761.22;;;7.49;85.96
64821;BME280;51256;55.654;37.264;2022-10-17T15:25:22;99760.38;;;7.49;85.33
64821;BME280;51256;55.654;37.264;2022-10-17T15:27:48;99762.69;;;7.53;85.78
64821;BME280;51256;55.654;37.264;2022-10-17T15:30:23;99762.22;;;7.59;85.67